createdAt,value
2022-12-17T13:41:09.864Z,-0.53
2022-12-17T14:12:25.812Z,-0.80
2022-12-17T15:55:16.208Z,-1.18
2022-12-17T16:00:12.149Z,-1.33
2022-12-17T16:05:06.995Z,-1.44
2022-12-17T16:10:04.788Z,-1.61
2022-12-17T16:15:03.743Z,-1.66
2022-12-17T16:20:12.141Z,-1.53
2022-12-17T16:25:06.581Z,-1.37
2022-12-17T16:30:01.297Z,-1.49
2022-12-17T16:34:54.647Z,-1.66
2022-12-17T16:39:48.034Z,-1.58
2022-12-17T16:44:41.426Z,-1.60
2022-12-17T16:49:36.192Z,-1.65
2022-12-17T16:54:33.751Z,-1.67
2022-12-17T16:59:27.140Z,-1.46
2022-12-17T17:04:23.763Z,-1.45
2022-12-17T17:09:20.226Z,-1.28
2022-12-17T17:14:13.683Z,-1.32
2022-12-17T17:19:08.037Z,-1.22
2022-12-17T17:24:04.325Z,-1.18
2022-12-17T17:29:00.660Z,-1.25
2022-12-17T17:33:55.373Z,-1.44
2022-12-17T17:38:51.237Z,-1.97
2022-12-17T17:43:45.392Z,-1.94
2022-12-17T17:48:40.773Z,-1.72
2022-12-17T17:53:34.415Z,-1.53
2022-12-17T17:58:27.815Z,-1.43
2022-12-17T18:03:21.196Z,-1.51
2022-12-17T18:08:16.020Z,-1.81
2022-12-17T18:13:27.848Z,-1.81
2022-12-17T18:18:21.181Z,-1.83
2022-12-17T18:23:15.911Z,-1.78
2022-12-17T18:28:09.385Z,-1.83
2022-12-17T18:33:02.678Z,-1.79
2022-12-17T18:37:56.036Z,-1.60
2022-12-17T18:43:08.342Z,-1.60
2022-12-17T18:48:01.694Z,-1.41
2022-12-17T18:52:55.042Z,-1.34
2022-12-17T18:57:48.385Z,-1.41
2022-12-17T20:47:48.644Z,-1.89
2022-12-17T21:26:08.705Z,-1.99
2022-12-17T23:16:57.088Z,-2.67
2022-12-17T23:41:45.528Z,-2.03
